Time;durP1;ratioP1;P1;durP2;ratioP2;P2;SDS_P1;SDS_P2;PMS_P1;PMS_P2;Temp;Humidity;BMP_temperature;BMP_pressure;BME280_temperature;BME280_humidity;BME280_pressure;Samples;Min_cycle;Max_cycle;Signal;HPM_P1;HPM_P2
2023/04/14 00:02:31;;;;;;;17.27;7.77;;;;;;;4.27;86.34;100700.00;5116108;28;20122;-89
2023/04/14 00:05:07;;;;;;;18.85;7.05;;;;;;;4.26;87.00;100706.38;5115973;28;20118;-89
2023/04/14 00:07:38;;;;;;;14.32;7.00;;;;;;;4.24;87.37;100701.19;5116176;28;20034;-89
2023/04/14 00:10:15;;;;;;;14.18;6.35;;;;;;;4.19;87.40;100690.97;5098619;28;20188;-89
2023/04/14 00:13:04;;;;;;;13.63;5.63;;;;;;;4.21;87.06;100691.63;5115937;28;20043;-89
2023/04/14 00:15:37;;;;;;;13.43;5.60;;;;;;;4.20;87.22;100689.94;5117387;28;20110;-89
2023/04/14 00:18:12;;;;;;;12.88;4.30;;;;;;;4.17;87.46;100698.38;5116222;28;20481;-89
2023/04/14 00:20:46;;;;;;;8.10;3.90;;;;;;;4.13;87.94;100693.53;5099415;28;20032;-89
2023/04/14 00:23:15;;;;;;;8.95;3.88;;;;;;;4.06;88.94;100688.03;5115365;28;20051;-89
2023/04/14 00:25:49;;;;;;;10.93;3.42;;;;;;;4.04;88.73;100692.72;5115519;28;20051;-89
2023/04/14 00:28:44;;;;;;;7.93;3.30;;;;;;;4.04;87.55;100707.00;5098999;28;20039;-90
2023/04/14 00:31:18;;;;;;;9.30;3.30;;;;;;;3.99;88.99;100705.88;5115762;28;20468;-89
2023/04/14 00:33:48;;;;;;;13.05;3.40;;;;;;;3.96;89.63;100698.16;5116836;28;20035;-89
2023/04/14 00:36:22;;;;;;;10.55;3.42;;;;;;;3.88;89.52;100698.19;5099806;28;20486;-89
2023/04/14 00:39:03;;;;;;;;;;;;;;;;;;;;;
2023/04/14 00:41:35;;;;;;;8.03;3.63;;;;;;;3.77;90.36;100697.56;5117426;28;20042;-88
2023/04/14 00:44:01;;;;;;;12.65;3.55;;;;;;;3.71;90.99;100703.63;5114488;28;20027;-88
2023/04/14 00:46:27;;;;;;;10.88;3.25;;;;;;;3.69;92.53;100705.63;5097630;28;20126;-88
2023/04/14 00:49:05;;;;;;;10.30;3.20;;;;;;;3.62;92.58;100702.00;5130820;27;20071;-89
2023/04/14 00:51:43;;;;;;;10.82;3.00;;;;;;;3.61;92.35;100711.06;5114518;28;20475;-89
2023/04/14 00:54:17;;;;;;;15.43;3.58;;;;;;;3.55;92.75;100712.56;5115319;28;20035;-88
2023/04/14 00:56:51;;;;;;;10.02;3.00;;;;;;;3.51;93.20;100711.25;5117255;28;20034;-88
2023/04/14 00:59:28;;;;;;;10.50;2.97;;;;;;;3.43;93.19;100717.47;5115348;28;20032;-88
2023/04/14 01:02:01;;;;;;;11.50;4.00;;;;;;;3.43;94.27;100709.44;5116068;28;20118;-88
2023/04/14 01:04:30;;;;;;;9.27;2.97;;;;;;;3.40;95.34;100709.78;5115932;28;20367;-88
2023/04/14 01:07:03;;;;;;;13.40;3.00;;;;;;;3.43;96.25;100717.47;5115127;28;20035;-89
2023/04/14 01:09:31;;;;;;;9.65;3.05;;;;;;;3.44;95.82;100720.97;5115442;28;20023;-88
2023/04/14 01:19:05;;;;;;;13.45;2.67;;;;;;;3.34;95.75;100734.59;5054021;28;20134;-90
2023/04/14 01:21:35;;;;;;;12.07;3.75;;;;;;;3.28;96.67;100725.38;5113793;28;20387;-90
2023/04/14 01:24:31;;;;;;;9.15;3.47;;;;;;;3.30;97.28;100731.41;5113552;28;20452;-90
2023/04/14 01:27:15;;;;;;;10.60;3.38;;;;;;;3.25;97.24;100722.19;5113783;28;20459;-89
2023/04/14 01:29:57;;;;;;;14.25;3.65;;;;;;;3.30;97.76;100728.72;5114835;28;20019;-90
2023/04/14 01:32:36;;;;;;;12.52;4.25;;;;;;;3.28;98.15;100724.56;5114358;28;20037;-90
2023/04/14 01:35:19;;;;;;;11.15;4.18;;;;;;;3.25;97.92;100727.56;5130915;27;20035;-90
2023/04/14 01:38:10;;;;;;;15.35;4.30;;;;;;;3.22;98.82;100727.91;5130850;27;20024;-89
2023/04/14 01:40:50;;;;;;;11.38;4.03;;;;;;;3.21;98.42;100729.75;5113011;28;20039;-90
2023/04/14 01:43:23;;;;;;;14.15;4.18;;;;;;;3.20;98.46;100735.28;5114978;28;20023;-90
2023/04/14 01:46:07;;;;;;;11.50;4.00;;;;;;;3.19;99.68;100739.81;5113496;28;20031;-90
2023/04/14 01:55:31;;;;;;;8.13;3.08;;;;;;;3.12;100.00;100741.50;5095971;28;20041;-88
2023/04/14 01:58:07;;;;;;;15.25;3.33;;;;;;;3.12;100.00;100741.50;5112933;28;20031;-88
2023/04/14 02:00:37;;;;;;;8.52;3.38;;;;;;;3.09;100.00;100752.56;5096097;28;20032;-88
2023/04/14 02:03:06;;;;;;;10.90;2.90;;;;;;;3.03;100.00;100738.00;5112560;28;20429;-89
2023/04/14 02:15:52;;;;;;;7.68;2.22;;;;;;;2.91;100.00;100748.22;5114151;28;20058;-89
2023/04/14 02:18:24;;;;;;;10.00;3.08;;;;;;;2.87;100.00;100751.41;5130196;28;20043;-89
2023/04/14 02:20:53;;;;;;;8.27;2.53;;;;;;;2.84;100.00;100757.91;5112897;28;20032;-89
2023/04/14 02:23:32;;;;;;;11.45;2.83;;;;;;;2.79;100.00;100752.22;5113873;28;20403;-89
2023/04/14 02:26:12;;;;;;;8.93;2.50;;;;;;;2.78;100.00;100754.06;5114663;28;20039;-89
2023/04/14 02:28:49;;;;;;;9.77;2.90;;;;;;;2.80;100.00;100756.56;5097958;28;20114;-89
2023/04/14 02:31:23;;;;;;;8.48;2.10;;;;;;;2.71;100.00;100747.69;5112947;28;20028;-89
2023/04/14 02:40:20;;;;;;;12.20;2.55;;;;;;;2.59;100.00;100757.06;5138414;27;20030;-89
2023/04/14 02:43:06;;;;;;;8.55;2.70;;;;;;;2.57;100.00;100759.91;5120887;27;20031;-89
2023/04/14 02:45:36;;;;;;;6.10;2.80;;;;;;;2.56;100.00;100755.53;5119932;27;20141;-89
2023/04/14 02:48:11;;;;;;;11.75;2.40;;;;;;;2.59;100.00;100768.59;5120080;27;20023;-89
2023/04/14 02:50:44;;;;;;;8.77;2.47;;;;;;;2.62;100.00;100770.13;5120328;27;20023;-89
2023/04/14 02:53:14;;;;;;;7.93;2.70;;;;;;;2.61;100.00;100774.66;5120029;27;20027;-89
2023/04/14 02:55:50;;;;;;;10.30;2.47;;;;;;;2.59;100.00;100773.13;5119820;27;20141;-89
2023/04/14 02:58:17;;;;;;;9.95;2.50;;;;;;;2.58;100.00;100763.41;5119616;27;20030;-89
2023/04/14 03:00:48;;;;;;;9.90;2.53;;;;;;;2.57;100.00;100764.41;5136852;27;20153;-89
2023/04/14 03:03:20;;;;;;;8.68;2.15;;;;;;;2.58;100.00;100764.28;5103245;27;20027;-89
2023/04/14 03:05:47;;;;;;;8.13;2.40;;;;;;;2.57;100.00;100775.13;5102457;27;20035;-89
2023/04/14 03:08:35;;;;;;;11.52;2.88;;;;;;;2.54;100.00;100775.44;5120042;27;20378;-89
2023/04/14 03:11:13;;;;;;;9.20;2.30;;;;;;;2.55;100.00;100777.97;5138091;27;20034;-90
2023/04/14 03:13:52;;;;;;;7.97;2.13;;;;;;;2.55;100.00;100775.28;5136499;27;20054;-89
2023/04/14 03:16:28;;;;;;;10.68;2.75;;;;;;;2.52;100.00;100778.31;5138916;27;20057;-89
2023/04/14 03:18:57;;;;;;;8.77;2.42;;;;;;;2.46;100.00;100773.59;5119292;27;20035;-89
2023/04/14 03:21:27;;;;;;;12.45;3.20;;;;;;;2.42;100.00;100769.56;5102078;27;20019;-89
2023/04/14 03:24:01;;;;;;;8.57;3.08;;;;;;;2.41;100.00;100779.47;5119385;27;20031;-89
2023/04/14 03:26:39;;;;;;;9.32;2.42;;;;;;;2.38;100.00;100776.28;5119056;27;20394;-89
2023/04/14 03:29:09;;;;;;;6.93;2.13;;;;;;;2.39;100.00;100775.25;5102879;27;20042;-89
2023/04/14 03:31:55;;;;;;;;;;;;;;;;;;;;;
2023/04/14 03:34:31;;;;;;;9.70;2.75;;;;;;;2.41;100.00;100768.75;5138515;27;20023;-89
2023/04/14 03:37:02;;;;;;;7.28;2.50;;;;;;;2.40;100.00;100780.44;5118890;27;20114;-89
2023/04/14 03:39:33;;;;;;;10.23;2.72;;;;;;;2.41;100.00;100783.97;5118933;27;20033;-89
2023/04/14 03:42:07;;;;;;;11.52;2.80;;;;;;;2.37;100.00;100779.94;5137496;27;20027;-89
2023/04/14 03:44:51;;;;;;;;;;;;;;;;;;;;;
2023/04/14 03:47:25;;;;;;;7.60;2.42;;;;;;;2.36;100.00;100773.78;5138214;27;20064;-89
2023/04/14 03:50:00;;;;;;;10.98;2.33;;;;;;;2.38;100.00;100782.47;5101991;27;20052;-89
2023/04/14 03:52:32;;;;;;;7.10;2.70;;;;;;;2.35;100.00;100780.13;5119588;27;20110;-89
2023/04/14 03:55:17;;;;;;;;;;;;;;;;;;;;;
2023/04/14 03:57:50;;;;;;;8.00;2.60;;;;;;;2.33;100.00;100770.56;5137292;27;20029;-89
2023/04/14 04:00:23;;;;;;;8.27;2.65;;;;;;;2.34;100.00;100782.97;5103041;27;20039;-89
2023/04/14 04:09:27;;;;;;;8.77;2.70;;;;;;;2.28;100.00;100797.81;5053507;28;20103;-89
2023/04/14 04:11:58;;;;;;;8.40;2.83;;;;;;;2.29;100.00;100794.16;5053534;28;20071;-89
2023/04/14 04:14:29;;;;;;;8.07;2.67;;;;;;;2.22;100.00;100787.78;5036316;28;20538;-89
2023/04/14 04:17:04;;;;;;;12.10;2.78;;;;;;;2.20;100.00;100785.25;5069114;27;20035;-89
2023/04/14 04:19:45;;;;;;;11.38;3.03;;;;;;;2.21;100.00;100788.75;5119120;27;20027;-88
2023/04/14 04:22:19;;;;;;;7.15;2.67;;;;;;;2.20;100.00;100795.09;5136500;27;20523;-89
2023/04/14 04:24:46;;;;;;;11.32;3.25;;;;;;;2.25;100.00;100792.81;5136966;27;20494;-89
2023/04/14 04:27:21;;;;;;;6.75;2.80;;;;;;;2.24;100.00;100783.94;5136137;27;20084;-89
2023/04/14 04:29:52;;;;;;;10.80;3.10;;;;;;;2.20;100.00;100795.97;5117739;27;20039;-89
2023/04/14 04:32:29;;;;;;;11.45;2.55;;;;;;;2.27;100.00;100797.00;5117520;27;20390;-89
2023/04/14 04:35:01;;;;;;;7.88;3.67;;;;;;;2.35;100.00;100798.00;5118482;27;20027;-89
2023/04/14 04:37:32;;;;;;;10.93;2.58;;;;;;;2.35;100.00;100801.53;5117943;27;20035;-89
2023/04/14 04:40:16;;;;;;;8.75;2.15;;;;;;;2.43;100.00;100804.22;5117501;27;20089;-89
2023/04/14 04:42:54;;;;;;;;;;;;;;;;;;;;;
2023/04/14 04:45:52;;;;;;;6.55;2.67;;;;;;;2.54;100.00;100799.56;5042903;27;20041;-89
2023/04/14 04:48:23;;;;;;;8.95;2.50;;;;;;;2.57;100.00;100792.06;5117402;27;20076;-89
2023/04/14 04:50:51;;;;;;;7.97;3.20;;;;;;;2.61;100.00;100811.31;5101118;27;20027;-89
2023/04/14 04:53:39;;;;;;;10.00;2.75;;;;;;;2.57;100.00;100797.41;5117869;27;20031;-89
2023/04/14 04:56:08;;;;;;;7.55;2.47;;;;;;;2.58;100.00;100803.59;5118751;27;20138;-89
2023/04/14 04:58:36;;;;;;;10.38;2.72;;;;;;;2.57;100.00;100801.91;5100969;27;20035;-89
2023/04/14 05:04:06;;;;;;;12.05;2.58;;;;;;;2.51;100.00;100800.75;5073221;28;20055;-89
2023/04/14 05:06:37;;;;;;;8.68;2.58;;;;;;;2.52;100.00;100796.22;5111958;27;20043;-89
2023/04/14 05:09:08;;;;;;;14.23;2.63;;;;;;;2.56;100.00;100794.91;5117284;27;20039;-89
2023/04/14 05:12:30;;;;;;;;;;;;;;;;;;;;;
2023/04/14 05:15:18;;;;;;;13.07;2.92;;;;;;;2.59;100.00;100798.06;5135361;27;20047;-90
2023/04/14 05:17:46;;;;;;;7.88;2.75;;;;;;;2.71;100.00;100808.47;5117735;27;20076;-90
2023/04/14 05:20:25;;;;;;;8.10;3.10;;;;;;;2.75;100.00;100793.75;5100069;27;20122;-89
2023/04/14 05:22:53;;;;;;;11.20;3.40;;;;;;;2.89;100.00;100803.81;5100282;27;20146;-89
2023/04/14 05:25:22;;;;;;;11.68;2.95;;;;;;;2.99;100.00;100804.47;5099737;27;20069;-89
2023/04/14 05:27:47;;;;;;;14.43;3.10;;;;;;;3.08;100.00;100796.47;5117094;27;20030;-89
2023/04/14 05:30:13;;;;;;;10.43;2.87;;;;;;;3.13;100.00;100797.63;5116515;27;20023;-89
2023/04/14 05:32:43;;;;;;;9.90;2.63;;;;;;;3.20;100.00;100796.97;5116767;27;20027;-90
2023/04/14 05:35:12;;;;;;;10.13;2.63;;;;;;;3.32;100.00;100792.91;5116472;27;20031;-89
2023/04/14 05:37:40;;;;;;;9.20;3.03;;;;;;;3.51;100.00;100794.41;5116687;27;20027;-89
2023/04/14 05:40:11;;;;;;;7.75;2.88;;;;;;;3.73;100.00;100805.44;5133648;27;20026;-89
2023/04/14 05:42:44;;;;;;;8.90;2.83;;;;;;;3.88;100.00;100800.19;5117119;27;20027;-87
2023/04/14 05:45:16;;;;;;;9.65;2.80;;;;;;;3.97;100.00;100799.16;5134735;27;20023;-88
2023/04/14 05:47:42;;;;;;;7.97;2.40;;;;;;;4.05;100.00;100788.38;5116658;27;20526;-87
2023/04/14 05:50:08;;;;;;;10.50;2.38;;;;;;;4.14;100.00;100797.25;5116231;27;20159;-87
2023/04/14 05:52:33;;;;;;;13.57;2.70;;;;;;;4.15;100.00;100791.72;5134462;27;20394;-86
2023/04/14 05:54:59;;;;;;;7.40;2.50;;;;;;;4.20;100.00;100792.00;5116396;27;20106;-86
2023/04/14 05:57:24;;;;;;;10.13;2.80;;;;;;;4.25;100.00;100788.78;5136158;27;20490;-85
2023/04/14 05:59:52;;;;;;;7.37;2.50;;;;;;;4.33;100.00;100796.81;5116658;27;20403;-87
2023/04/14 06:02:18;;;;;;;10.80;2.75;;;;;;;4.37;100.00;100797.28;5116937;27;20039;-86
2023/04/14 06:04:43;;;;;;;6.03;2.90;;;;;;;4.43;100.00;100798.44;5116162;27;20035;-85
2023/04/14 06:07:09;;;;;;;8.60;2.40;;;;;;;4.46;100.00;100790.88;5133370;27;20027;-86
2023/04/14 06:09:34;;;;;;;12.07;2.55;;;;;;;4.53;100.00;100799.06;5134242;27;20485;-86
2023/04/14 06:12:02;;;;;;;9.85;2.42;;;;;;;4.65;100.00;100804.88;5115712;28;20031;-85
2023/04/14 06:14:31;;;;;;;7.80;2.40;;;;;;;4.67;100.00;100803.69;5115525;28;20128;-86
2023/04/14 06:17:04;;;;;;;5.43;2.23;;;;;;;4.65;100.00;100796.81;5133933;28;20031;-86
2023/04/14 06:19:29;;;;;;;8.38;2.38;;;;;;;4.67;100.00;100808.22;5116408;28;20049;-86
2023/04/14 06:21:58;;;;;;;11.77;2.70;;;;;;;4.67;100.00;100795.63;5134421;28;20031;-86
2023/04/14 06:24:23;;;;;;;8.10;2.60;;;;;;;4.71;100.00;100796.94;5100217;28;20027;-86
2023/04/14 06:26:49;;;;;;;8.07;2.60;;;;;;;4.81;100.00;100794.00;5115843;28;20340;-85
2023/04/14 06:29:17;;;;;;;6.53;2.70;;;;;;;4.85;100.00;100783.75;5115705;28;20031;-86
2023/04/14 06:31:53;;;;;;;8.02;2.60;;;;;;;4.95;100.00;100783.50;5132635;28;20088;-86
2023/04/14 06:34:19;;;;;;;7.82;2.40;;;;;;;4.97;99.03;100781.47;5116510;28;20035;-86
2023/04/14 06:36:51;;;;;;;7.93;2.67;;;;;;;5.01;98.70;100766.66;5115847;28;20532;-86
2023/04/14 06:39:20;;;;;;;8.93;2.58;;;;;;;5.06;99.24;100775.00;5116630;28;20031;-86
2023/04/14 06:41:46;;;;;;;10.90;2.88;;;;;;;5.15;98.50;100784.66;5134031;28;20042;-86
2023/04/14 06:44:11;;;;;;;11.00;3.03;;;;;;;5.20;97.52;100770.69;5115904;28;20456;-85
2023/04/14 06:46:39;;;;;;;11.35;2.60;;;;;;;5.22;97.90;100774.84;5133810;28;20033;-85
2023/04/14 06:49:07;;;;;;;8.23;2.05;;;;;;;5.30;98.28;100770.41;5115275;28;20028;-87
2023/04/14 06:51:35;;;;;;;8.80;2.33;;;;;;;5.41;98.28;100776.19;5118155;28;20095;-85
2023/04/14 06:54:01;;;;;;;8.95;2.33;;;;;;;5.45;98.12;100772.13;5116190;28;20362;-86
2023/04/14 06:56:26;;;;;;;8.57;2.13;;;;;;;5.54;98.09;100774.75;5098145;28;20023;-86
2023/04/14 06:59:00;;;;;;;7.22;2.40;;;;;;;5.59;97.63;100770.44;5098340;28;20039;-86
2023/04/14 07:01:26;;;;;;;6.72;2.40;;;;;;;5.69;97.55;100763.97;5116007;28;20034;-86
2023/04/14 07:03:51;;;;;;;11.23;2.70;;;;;;;5.74;97.45;100764.25;5132594;28;20094;-86
2023/04/14 07:06:17;;;;;;;10.40;2.60;;;;;;;5.83;96.86;100765.00;5132879;28;20035;-86
2023/04/14 07:08:42;;;;;;;6.87;2.33;;;;;;;5.91;95.61;100765.72;5115643;28;20117;-85
2023/04/14 07:11:10;;;;;;;8.77;2.25;;;;;;;6.00;95.61;100761.13;5134043;28;20109;-86
2023/04/14 07:13:37;;;;;;;7.78;2.60;;;;;;;6.10;94.76;100755.44;5134019;28;20035;-86
2023/04/14 07:16:05;;;;;;;6.05;2.10;;;;;;;6.21;93.85;100754.94;5115697;28;20043;-86
2023/04/14 07:18:30;;;;;;;9.68;2.10;;;;;;;6.27;93.94;100747.97;5116025;27;20466;-86
2023/04/14 07:20:56;;;;;;;9.10;2.30;;;;;;;6.38;93.44;100752.03;5136329;27;20023;-87
2023/04/14 07:23:22;;;;;;;9.40;2.40;;;;;;;6.45;93.28;100744.84;5135910;27;20035;-86
2023/04/14 07:25:57;;;;;;;9.05;2.20;;;;;;;6.56;92.35;100743.53;5118751;27;20027;-86
2023/04/14 07:28:24;;;;;;;5.80;2.15;;;;;;;6.63;90.99;100736.34;5119128;27;20050;-86
2023/04/14 07:30:53;;;;;;;9.52;2.72;;;;;;;6.76;90.23;100751.81;5119917;27;20537;-86
2023/04/14 07:33:20;;;;;;;7.70;1.98;;;;;;;6.87;88.78;100747.78;5102639;27;20057;-86
2023/04/14 07:35:50;;;;;;;10.52;2.20;;;;;;;6.96;88.42;100746.59;5118673;27;20110;-86
2023/04/14 07:38:16;;;;;;;5.22;1.88;;;;;;;7.01;87.04;100745.00;5118747;27;20031;-86
2023/04/14 07:40:42;;;;;;;8.13;2.17;;;;;;;7.09;87.28;100743.19;5118519;27;20127;-86
2023/04/14 07:43:09;;;;;;;9.37;2.10;;;;;;;7.19;86.87;100746.41;5118590;27;20107;-86
2023/04/14 07:45:35;;;;;;;5.13;1.80;;;;;;;7.24;85.87;100729.63;5118690;27;20475;-86
2023/04/14 07:48:01;;;;;;;10.23;2.15;;;;;;;7.30;84.94;100729.66;5118739;27;20038;-86
2023/04/14 07:50:29;;;;;;;5.22;2.08;;;;;;;7.38;84.60;100728.66;5135547;27;20034;-86
2023/04/14 07:52:59;;;;;;;7.50;1.98;;;;;;;7.48;83.29;100733.72;5101172;27;20119;-87
2023/04/14 07:55:32;;;;;;;5.07;1.60;;;;;;;7.53;82.89;100729.38;5102599;27;20035;-86
2023/04/14 07:58:00;;;;;;;7.45;1.55;;;;;;;7.63;82.13;100731.75;5136997;27;20114;-86
2023/04/14 08:00:26;;;;;;;5.18;1.40;;;;;;;7.70;81.12;100738.00;5136981;27;20034;-86
2023/04/14 08:03:08;;;;;;;8.00;1.80;;;;;;;7.78;79.91;100723.50;5136425;27;20027;-86
2023/04/14 08:05:36;;;;;;;5.13;1.75;;;;;;;7.88;80.22;100734.78;5118219;27;20035;-86
2023/04/14 08:08:12;;;;;;;9.50;1.70;;;;;;;7.93;79.24;100734.19;5119112;27;20500;-86
2023/04/14 08:10:43;;;;;;;3.30;1.17;;;;;;;8.01;78.28;100728.59;5118852;27;20023;-87
2023/04/14 08:13:09;;;;;;;5.80;1.13;;;;;;;8.10;78.68;100731.94;5136928;27;20528;-86
2023/04/14 08:15:37;;;;;;;6.33;1.37;;;;;;;8.15;77.86;100721.38;5117583;27;20044;-86
2023/04/14 08:18:02;;;;;;;4.50;1.63;;;;;;;8.23;77.74;100726.59;5117707;27;20114;-87
2023/04/14 08:20:30;;;;;;;12.70;1.73;;;;;;;8.29;77.17;100729.53;5134894;27;20102;-86
2023/04/14 08:22:59;;;;;;;4.18;1.05;;;;;;;8.38;74.97;100729.13;5117492;27;20063;-86
2023/04/14 08:25:31;;;;;;;4.05;1.33;;;;;;;8.48;74.51;100717.13;5117324;27;20050;-86
2023/04/14 08:27:59;;;;;;;5.70;1.75;;;;;;;8.57;73.30;100722.13;5118123;27;20031;-88
2023/04/14 08:30:25;;;;;;;4.03;1.35;;;;;;;8.65;73.32;100721.13;5117567;27;20038;-87
2023/04/14 08:32:53;;;;;;;4.57;1.10;;;;;;;8.72;73.93;100729.25;5117685;27;20479;-87
2023/04/14 08:35:22;;;;;;;8.13;1.05;;;;;;;8.81;71.00;100728.00;5117356;27;20042;-88
2023/04/14 08:37:48;;;;;;;3.50;0.90;;;;;;;8.88;70.45;100726.13;5117528;27;20543;-87
2023/04/14 08:40:16;;;;;;;2.17;0.50;;;;;;;8.93;68.24;100720.09;5100857;27;20050;-86
2023/04/14 08:42:42;;;;;;;4.97;1.00;;;;;;;9.03;69.14;100711.56;5118308;27;20457;-86
2023/04/14 08:45:08;;;;;;;5.57;1.07;;;;;;;9.15;67.69;100719.88;5118239;27;20084;-86
2023/04/14 08:47:38;;;;;;;9.85;1.38;;;;;;;9.21;68.27;100714.50;5100677;27;20474;-86
2023/04/14 08:50:07;;;;;;;8.05;0.70;;;;;;;9.25;68.38;100717.59;5136236;27;20027;-86
2023/04/14 08:52:44;;;;;;;3.75;1.10;;;;;;;9.35;68.92;100719.88;5117679;27;20042;-86
2023/04/14 08:55:10;;;;;;;4.65;0.80;;;;;;;9.44;68.22;100722.16;5136557;27;20043;-87
2023/04/14 08:57:37;;;;;;;5.57;0.68;;;;;;;9.56;68.51;100716.09;5117129;27;20031;-86
2023/04/14 09:00:08;;;;;;;3.67;0.70;;;;;;;9.63;66.65;100722.31;5100018;27;20390;-86
2023/04/14 09:02:34;;;;;;;6.43;1.00;;;;;;;9.70;66.52;100722.28;5116978;27;20035;-86
2023/04/14 09:05:00;;;;;;;4.70;0.85;;;;;;;9.78;66.84;100724.78;5116990;27;20134;-86
2023/04/14 09:07:34;;;;;;;3.92;1.33;;;;;;;9.88;66.26;100724.34;5116932;27;20044;-86
2023/04/14 09:10:05;;;;;;;2.95;0.88;;;;;;;9.93;64.66;100713.69;5116582;27;20035;-86
2023/04/14 09:12:31;;;;;;;5.00;1.23;;;;;;;10.02;64.85;100712.38;5116568;27;20039;-86
2023/04/14 09:15:20;;;;;;;4.47;0.80;;;;;;;10.12;66.07;100714.66;5116025;27;20047;-86
2023/04/14 09:17:52;;;;;;;4.97;1.10;;;;;;;10.17;64.54;100702.13;5134695;27;20494;-85
2023/04/14 09:20:18;;;;;;;5.25;1.30;;;;;;;10.34;64.31;100709.78;5117217;27;20446;-86
2023/04/14 09:22:49;;;;;;;4.03;0.80;;;;;;;10.55;65.95;100705.06;5116742;27;20030;-86
2023/04/14 09:25:19;;;;;;;4.25;1.10;;;;;;;10.71;64.85;100702.63;5136263;27;20079;-86
2023/04/14 09:27:52;;;;;;;4.20;1.13;;;;;;;10.83;63.86;100694.59;5118997;27;20027;-86
2023/04/14 09:30:22;;;;;;;4.43;1.02;;;;;;;10.93;61.13;100709.59;5116831;27;20055;-86
2023/04/14 09:32:52;;;;;;;3.00;0.80;;;;;;;10.99;61.66;100697.84;5135491;27;20029;-87
2023/04/14 09:35:17;;;;;;;5.25;0.93;;;;;;;11.10;60.50;100709.84;5135063;27;20121;-86
2023/04/14 09:37:45;;;;;;;4.13;1.23;;;;;;;11.15;60.88;100699.16;5116588;27;20497;-86
2023/04/14 09:40:38;;;;;;;5.40;1.10;;;;;;;11.50;61.26;100701.31;5116294;27;20110;-86
2023/04/14 09:43:04;;;;;;;3.25;0.80;;;;;;;11.75;58.02;100691.22;5134993;27;20038;-86
2023/04/14 09:45:43;;;;;;;2.97;0.83;;;;;;;11.85;58.12;100687.13;5133906;27;20438;-86
2023/04/14 09:48:09;;;;;;;3.40;1.10;;;;;;;11.92;57.65;100691.44;5134656;27;20462;-86
2023/04/14 09:51:02;;;;;;;4.13;1.17;;;;;;;12.14;59.12;100688.28;5116147;27;20509;-86
2023/04/14 09:53:35;;;;;;;4.53;1.27;;;;;;;12.21;54.52;100677.28;5116591;27;20022;-86
2023/04/14 09:56:04;;;;;;;3.88;1.25;;;;;;;12.32;54.81;100675.69;5116098;27;20038;-86
2023/04/14 09:58:35;;;;;;;4.15;0.95;;;;;;;12.45;54.14;100676.31;5134407;27;20090;-86
2023/04/14 10:01:04;;;;;;;3.60;1.17;;;;;;;12.65;52.74;100667.00;5116339;27;20118;-86
2023/04/14 10:03:36;;;;;;;3.78;0.95;;;;;;;12.77;52.96;100672.47;5135261;27;20034;-86
2023/04/14 10:06:05;;;;;;;7.93;1.10;;;;;;;12.89;51.61;100669.75;5134894;27;20058;-86
2023/04/14 10:08:38;;;;;;;4.07;0.90;;;;;;;12.88;50.65;100662.69;5134530;27;20084;-86
2023/04/14 10:11:14;;;;;;;3.63;1.27;;;;;;;12.90;52.64;100658.66;5116946;28;20019;-86
2023/04/14 10:13:42;;;;;;;2.55;0.93;;;;;;;13.05;50.91;100649.19;5134283;27;20129;-87
2023/04/14 10:16:07;;;;;;;7.20;1.23;;;;;;;13.07;51.69;100653.34;5099194;28;20394;-86
2023/04/14 10:18:34;;;;;;;5.43;1.30;;;;;;;13.28;50.34;100642.91;5116303;28;20035;-86
2023/04/14 10:21:00;;;;;;;4.45;0.80;;;;;;;13.61;49.29;100644.16;5132924;28;20019;-86
2023/04/14 10:23:30;;;;;;;4.47;1.05;;;;;;;13.81;48.40;100638.31;5116190;28;20474;-86
2023/04/14 10:25:56;;;;;;;4.37;0.97;;;;;;;13.77;49.69;100634.41;5099799;28;20172;-87
2023/04/14 10:28:24;;;;;;;5.18;1.25;;;;;;;14.24;49.48;100644.31;5116404;28;20029;-86
2023/04/14 10:30:55;;;;;;;5.55;1.00;;;;;;;14.67;49.00;100635.53;5115928;28;20035;-86
2023/04/14 10:33:23;;;;;;;4.57;0.80;;;;;;;14.73;46.66;100631.84;5115062;28;20130;-87
2023/04/14 10:35:56;;;;;;;3.03;1.15;;;;;;;14.42;46.62;100635.91;5115817;28;20414;-87
2023/04/14 10:38:37;;;;;;;4.87;1.10;;;;;;;14.29;45.81;100628.03;5115636;28;20024;-87
2023/04/14 10:41:04;;;;;;;4.70;1.05;;;;;;;13.79;46.87;100630.38;5115774;28;20035;-86
2023/04/14 10:43:35;;;;;;;5.25;1.10;;;;;;;13.62;46.72;100627.56;5116155;28;20053;-87
2023/04/14 10:46:05;;;;;;;3.22;0.95;;;;;;;13.62;48.48;100621.31;5116627;28;20050;-87
2023/04/14 10:48:34;;;;;;;4.90;1.17;;;;;;;13.92;48.73;100620.25;5116066;28;20027;-87
2023/04/14 10:51:05;;;;;;;5.67;1.20;;;;;;;14.45;47.98;100619.03;5115801;28;20031;-86
2023/04/14 10:53:46;;;;;;;4.32;1.40;;;;;;;14.86;47.49;100618.91;5136151;27;20109;-86
2023/04/14 10:56:14;;;;;;;4.60;0.98;;;;;;;15.08;46.20;100618.97;5120050;27;20030;-87
2023/04/14 10:58:53;;;;;;;5.63;1.00;;;;;;;15.16;46.68;100620.44;5120286;27;20038;-87
2023/04/14 11:01:33;;;;;;;5.80;1.05;;;;;;;15.46;44.82;100613.72;5119944;27;20015;-87
2023/04/14 11:04:17;;;;;;;4.03;1.10;;;;;;;15.94;44.35;100599.31;5138155;27;20031;-87
2023/04/14 11:06:45;;;;;;;4.43;1.10;;;;;;;16.24;41.48;100608.91;5138565;27;20087;-87
2023/04/14 11:09:36;;;;;;;4.85;1.10;;;;;;;16.26;43.13;100612.19;5119341;27;20031;-87
2023/04/14 11:12:26;;;;;;;4.32;1.10;;;;;;;16.20;42.42;100610.50;5120609;27;20030;-86
2023/04/14 11:15:00;;;;;;;5.05;1.20;;;;;;;17.18;40.16;100598.41;5137520;27;20394;-87
2023/04/14 11:17:31;;;;;;;4.17;1.20;;;;;;;17.46;36.87;100604.56;5119846;27;20486;-87
2023/04/14 11:19:57;;;;;;;4.82;1.00;;;;;;;16.65;38.21;100598.31;5137485;27;20054;-86
2023/04/14 11:22:40;;;;;;;3.70;1.00;;;;;;;16.62;41.03;100601.56;5137382;27;20102;-87
2023/04/14 11:25:11;;;;;;;6.43;1.10;;;;;;;17.11;39.35;100595.09;5119211;27;20034;-86
2023/04/14 11:27:39;;;;;;;5.55;1.33;;;;;;;17.50;38.75;100597.47;5137573;27;20113;-87
2023/04/14 11:30:11;;;;;;;5.25;1.23;;;;;;;17.71;37.82;100592.88;5102519;27;20542;-87
2023/04/14 11:32:58;;;;;;;5.03;1.00;;;;;;;17.95;38.67;100588.84;5137270;27;20432;-87
2023/04/14 11:35:25;;;;;;;4.63;1.25;;;;;;;20.68;33.99;100581.41;5137536;27;20023;-87
2023/04/14 11:38:00;;;;;;;5.90;1.30;;;;;;;22.45;31.60;100587.19;5137521;27;20030;-87
2023/04/14 11:40:26;;;;;;;4.70;1.20;;;;;;;22.87;28.95;100582.59;5119680;27;20033;-87
2023/04/14 11:42:59;;;;;;;3.80;1.00;;;;;;;22.89;29.45;100585.88;5118755;27;20109;-87
2023/04/14 11:45:29;;;;;;;5.65;1.33;;;;;;;22.04;29.59;100585.03;5118646;27;20127;-87
2023/04/14 11:48:07;;;;;;;3.90;1.33;;;;;;;22.20;29.67;100580.94;5118710;27;20073;-87
2023/04/14 11:50:37;;;;;;;1.80;1.30;;;;;;;22.16;28.59;100584.56;5119090;27;20027;-86
2023/04/14 11:53:29;;;;;;;3.47;1.27;;;;;;;20.83;29.82;100579.59;5118610;27;20027;-87
2023/04/14 11:55:59;;;;;;;4.82;1.33;;;;;;;20.37;30.32;100575.28;5118893;27;20034;-86
2023/04/14 11:58:26;;;;;;;5.57;1.40;;;;;;;19.88;30.49;100581.69;5118554;27;20416;-86
2023/04/14 12:00:52;;;;;;;3.40;1.20;;;;;;;21.16;30.12;100572.34;5118510;27;20058;-86
2023/04/14 12:03:19;;;;;;;5.50;1.10;;;;;;;24.02;25.71;100568.94;5118134;27;20019;-86
2023/04/14 12:05:45;;;;;;;4.57;1.70;;;;;;;25.30;24.93;100570.34;5135898;27;20031;-86
2023/04/14 12:08:11;;;;;;;3.17;1.33;;;;;;;28.32;21.58;100574.09;5137042;27;20035;-86
2023/04/14 12:10:40;;;;;;;3.97;1.30;;;;;;;30.88;19.98;100565.31;5118573;27;20285;-84
2023/04/14 12:13:10;;;;;;;5.55;1.90;;;;;;;29.00;20.33;100566.50;5118382;27;20035;-84
2023/04/14 12:15:38;;;;;;;4.32;1.50;;;;;;;26.25;21.54;100560.53;5136008;27;20063;-85
2023/04/14 12:18:12;;;;;;;4.10;1.60;;;;;;;24.58;24.65;100560.34;5118408;27;20039;-86
2023/04/14 12:20:45;;;;;;;5.63;1.65;;;;;;;23.88;26.27;100555.09;5117633;27;20043;-85
2023/04/14 12:23:10;;;;;;;3.20;1.27;;;;;;;24.50;24.36;100550.84;5118624;27;20034;-86
2023/04/14 12:25:39;;;;;;;5.82;1.63;;;;;;;25.68;22.68;100544.78;5117660;27;20027;-85
2023/04/14 12:28:16;;;;;;;3.95;1.52;;;;;;;25.00;22.90;100544.25;5117932;27;20091;-86
2023/04/14 12:30:50;;;;;;;3.60;1.20;;;;;;;24.19;25.43;100551.59;5102522;27;20023;-86
2023/04/14 12:33:16;;;;;;;4.68;1.30;;;;;;;27.26;22.49;100539.75;5117885;27;20024;-85
2023/04/14 12:35:43;;;;;;;6.80;1.70;;;;;;;28.64;19.36;100538.19;5136147;27;20106;-87
2023/04/14 12:38:15;;;;;;;3.30;1.42;;;;;;;26.17;21.26;100543.84;5117964;27;20030;-86